Time;durP1;ratioP1;P1;durP2;ratioP2;P2;SDS_P1;SDS_P2;PMS_P1;PMS_P2;Temp;Humidity;BMP_temperature;BMP_pressure;BME280_temperature;BME280_humidity;BME280_pressure;Samples;Min_cycle;Max_cycle;Signal;HPM_P1;HPM_P2
2021/12/10 00:01:57;;;;;;;13.30;2.57;;;;;;;5.85;83.22;99250.03;5038398;28;20303;-67
2021/12/10 00:04:31;;;;;;;9.47;2.47;;;;;;;5.88;82.27;99241.91;5038041;28;20274;-67
2021/12/10 00:07:02;;;;;;;8.20;2.33;;;;;;;5.49;84.04;99239.44;5038239;28;20320;-67
2021/12/10 00:09:33;;;;;;;11.73;2.83;;;;;;;5.61;84.05;99240.91;5039811;28;20550;-67
2021/12/10 00:12:09;;;;;;;13.97;2.63;;;;;;;5.26;84.43;99232.91;5042248;28;20263;-67
2021/12/10 00:14:38;;;;;;;10.27;2.60;;;;;;;5.30;85.18;99224.56;5041867;28;20258;-67
2021/12/10 00:17:10;;;;;;;11.03;2.97;;;;;;;5.31;85.11;99225.41;5043277;28;20209;-67
2021/12/10 00:19:44;;;;;;;8.97;3.10;;;;;;;5.15;85.42;99217.31;5039840;28;20236;-67
2021/12/10 00:22:15;;;;;;;16.97;3.40;;;;;;;4.93;85.93;99210.59;5041319;28;20246;-67
2021/12/10 00:24:45;;;;;;;12.33;3.47;;;;;;;4.96;86.11;99199.81;5039524;28;20221;-67
2021/12/10 00:27:14;;;;;;;8.63;3.10;;;;;;;5.17;84.44;99191.72;5039682;28;20208;-67
2021/12/10 00:29:49;;;;;;;10.67;3.27;;;;;;;5.24;83.78;99192.78;5032734;28;20213;-67
2021/12/10 00:32:29;;;;;;;9.80;3.00;;;;;;;4.93;84.88;99190.41;5039627;28;20203;-67
2021/12/10 00:34:59;;;;;;;9.27;2.57;;;;;;;4.98;83.77;99186.53;5040407;28;20769;-66
2021/12/10 00:37:27;;;;;;;7.87;2.47;;;;;;;4.87;85.13;99191.00;5046900;28;20203;-67
2021/12/10 00:39:59;;;;;;;7.53;2.37;;;;;;;5.17;83.38;99186.47;5045443;28;23957;-66
2021/12/10 00:42:34;;;;;;;10.10;3.03;;;;;;;5.12;83.42;99175.53;5051376;28;20244;-66
2021/12/10 00:45:05;;;;;;;10.17;3.10;;;;;;;5.30;82.81;99176.44;5043007;28;20254;-67
2021/12/10 00:47:33;;;;;;;13.43;3.70;;;;;;;5.19;82.66;99168.75;5049294;28;20761;-67
2021/12/10 00:50:02;;;;;;;8.23;2.30;;;;;;;5.30;82.25;99166.75;5042864;28;20351;-67
2021/12/10 00:52:30;;;;;;;9.50;2.50;;;;;;;5.14;82.58;99157.84;5037835;28;20220;-67
2021/12/10 00:54:58;;;;;;;13.63;4.40;;;;;;;5.43;81.85;99150.66;5040769;28;20451;-67
2021/12/10 00:57:27;;;;;;;13.33;3.30;;;;;;;5.22;81.81;99147.44;5041923;28;20204;-67
2021/12/10 00:59:55;;;;;;;8.93;2.60;;;;;;;5.15;82.47;99151.63;5042355;28;20256;-67
2021/12/10 01:02:25;;;;;;;11.47;3.20;;;;;;;5.56;80.95;99145.84;5039900;28;20307;-67
2021/12/10 01:04:57;;;;;;;9.37;2.40;;;;;;;5.55;80.54;99138.09;5041203;28;20219;-67
2021/12/10 01:07:27;;;;;;;10.03;2.23;;;;;;;5.34;81.54;99143.63;5040268;28;20227;-67
2021/12/10 01:09:57;;;;;;;10.07;2.10;;;;;;;5.65;79.93;99139.69;5039372;28;20236;-67
2021/12/10 01:12:30;;;;;;;7.77;2.40;;;;;;;5.87;79.23;99134.97;5037102;28;20208;-67
2021/12/10 01:15:19;;;;;;;8.30;2.90;;;;;;;5.44;79.44;99125.19;5039856;28;20663;-67
2021/12/10 01:23:51;;;;;;;4.50;1.87;;;;;;;5.75;76.76;99104.59;5041764;28;20208;-67
2021/12/10 01:26:38;;;;;;;7.70;2.27;;;;;;;5.18;77.15;99093.53;5047811;28;20569;-67
2021/12/10 01:29:10;;;;;;;6.47;1.80;;;;;;;5.27;77.75;99093.47;5040283;28;20204;-67
2021/12/10 01:31:39;;;;;;;6.43;1.60;;;;;;;5.38;76.89;99099.47;5037262;28;20211;-67
2021/12/10 01:34:09;;;;;;;4.40;1.70;;;;;;;5.90;76.45;99082.06;5039787;28;20204;-67
2021/12/10 01:36:38;;;;;;;6.47;1.40;;;;;;;5.65;75.56;99079.22;5042778;28;20209;-67
2021/12/10 01:39:08;;;;;;;8.10;1.40;;;;;;;5.76;75.65;99079.97;5044840;28;20224;-67
2021/12/10 01:41:40;;;;;;;11.30;2.20;;;;;;;5.85;75.64;99076.44;5038120;28;20311;-67
2021/12/10 01:44:15;;;;;;;8.17;1.93;;;;;;;5.54;76.81;99073.38;5039544;28;20215;-67
2021/12/10 01:46:45;;;;;;;8.90;2.10;;;;;;;5.58;77.13;99075.53;5039012;28;20306;-66
2021/12/10 01:49:14;;;;;;;8.43;2.20;;;;;;;5.27;78.22;99067.19;5045724;28;20340;-67
2021/12/10 01:51:45;;;;;;;15.00;2.10;;;;;;;5.31;78.48;99059.81;5042695;28;20225;-67
2021/12/10 01:54:19;;;;;;;8.97;2.50;;;;;;;5.12;79.81;99057.31;5037883;28;20246;-67
2021/12/10 01:56:50;;;;;;;7.60;2.03;;;;;;;4.88;81.08;99049.97;5024945;28;20213;-67
2021/12/10 01:59:20;;;;;;;9.37;2.70;;;;;;;4.87;81.49;99051.78;5022884;28;20221;-67
2021/12/10 02:01:51;;;;;;;11.03;2.60;;;;;;;4.55;82.95;99048.75;5022603;28;20692;-67
2021/12/10 02:04:22;;;;;;;11.80;3.63;;;;;;;4.43;83.02;99036.78;5021019;28;20557;-67
2021/12/10 02:06:50;;;;;;;11.43;3.10;;;;;;;4.67;82.05;99031.00;5017756;28;20304;-67
2021/12/10 02:09:19;;;;;;;12.17;2.87;;;;;;;4.41;83.63;99031.66;5023645;28;20216;-67
2021/12/10 02:11:47;;;;;;;9.87;3.10;;;;;;;4.35;83.36;99031.44;5020247;28;20694;-68
2021/12/10 02:14:15;;;;;;;12.77;2.90;;;;;;;4.57;82.35;99010.06;5022466;28;20239;-68
2021/12/10 02:16:45;;;;;;;12.37;3.00;;;;;;;4.39;82.49;99001.31;5022458;28;20211;-68
2021/12/10 02:19:14;;;;;;;7.40;2.57;;;;;;;4.29;82.78;98990.84;5021606;28;20228;-68
2021/12/10 02:21:43;;;;;;;8.47;2.53;;;;;;;4.57;82.30;98983.00;5019855;28;21924;-68
2021/12/10 02:24:13;;;;;;;5.90;3.23;;;;;;;4.33;83.21;98986.13;5019344;28;20220;-68
2021/12/10 02:26:44;;;;;;;8.53;3.63;;;;;;;4.51;82.16;98979.97;5023509;28;20220;-68
2021/12/10 02:29:12;;;;;;;10.03;3.47;;;;;;;4.56;82.40;98982.16;5018532;28;20296;-68
2021/12/10 02:31:40;;;;;;;12.07;3.23;;;;;;;4.53;81.82;98979.81;5023301;28;20859;-67
2021/12/10 02:34:09;;;;;;;6.47;3.17;;;;;;;4.14;83.88;98972.09;5020821;28;20326;-66
2021/12/10 02:36:41;;;;;;;8.30;3.30;;;;;;;4.12;84.11;98973.25;5026800;28;20291;-66
2021/12/10 02:39:13;;;;;;;11.23;3.50;;;;;;;3.85;85.03;98960.06;5022929;28;20666;-66
2021/12/10 02:41:41;;;;;;;11.73;3.57;;;;;;;3.90;84.58;98956.03;5026708;28;20215;-66
2021/12/10 02:44:12;;;;;;;12.57;3.67;;;;;;;3.99;84.24;98949.94;5018030;28;20335;-66
2021/12/10 02:46:41;;;;;;;13.10;3.13;;;;;;;3.95;83.73;98945.97;5025477;28;20295;-66
2021/12/10 02:49:12;;;;;;;11.13;3.33;;;;;;;4.09;83.36;98947.28;5026128;28;20205;-67
2021/12/10 02:51:41;;;;;;;10.70;3.33;;;;;;;3.66;84.40;98950.44;5023917;28;20283;-68
2021/12/10 02:54:20;;;;;;;13.97;3.03;;;;;;;3.66;84.83;98939.97;5018179;28;20293;-68
2021/12/10 02:56:52;;;;;;;10.30;3.37;;;;;;;3.61;85.47;98943.00;5032254;28;20218;-68
2021/12/10 02:59:20;;;;;;;7.67;2.90;;;;;;;3.50;85.58;98937.09;5030454;28;20259;-68
2021/12/10 03:01:51;;;;;;;11.47;2.87;;;;;;;3.55;85.84;98927.84;5029088;28;20230;-68
2021/12/10 03:04:19;;;;;;;8.23;2.80;;;;;;;3.81;83.70;98922.81;5029131;28;20696;-68
2021/12/10 03:06:51;;;;;;;7.47;2.73;;;;;;;3.59;84.61;98917.91;5029119;28;20226;-68
2021/12/10 03:09:22;;;;;;;7.00;2.57;;;;;;;3.45;85.14;98910.47;5028336;28;20215;-68
2021/12/10 03:11:52;;;;;;;5.00;2.13;;;;;;;3.38;85.19;98911.03;5027062;28;21613;-68
2021/12/10 03:14:22;;;;;;;12.93;2.73;;;;;;;3.27;85.14;98902.50;5034095;28;20603;-68
2021/12/10 03:16:53;;;;;;;10.03;2.80;;;;;;;3.25;85.36;98891.38;5027114;28;20793;-67
2021/12/10 03:19:21;;;;;;;10.27;2.53;;;;;;;3.15;85.51;98886.13;5027761;28;20647;-68
2021/12/10 03:21:51;;;;;;;15.00;2.73;;;;;;;3.48;84.60;98876.13;5026029;28;20262;-67
2021/12/10 03:24:23;;;;;;;10.20;3.03;;;;;;;3.21;84.63;98867.22;5030409;28;20209;-67
2021/12/10 03:26:53;;;;;;;9.57;2.67;;;;;;;3.19;84.62;98865.72;5031584;28;20223;-67
2021/12/10 03:29:22;;;;;;;9.50;2.60;;;;;;;3.00;85.05;98862.16;5028107;28;20308;-67
2021/12/10 03:31:51;;;;;;;11.30;3.77;;;;;;;3.04;84.89;98854.84;5031699;28;20302;-67
2021/12/10 03:34:20;;;;;;;8.03;2.93;;;;;;;3.21;84.49;98859.38;5028839;28;20218;-67
2021/12/10 03:36:51;;;;;;;8.97;2.60;;;;;;;3.11;84.59;98845.47;5040275;28;20312;-67
2021/12/10 03:39:24;;;;;;;8.63;2.10;;;;;;;3.23;83.91;98839.09;5036587;28;20214;-67
2021/12/10 03:41:54;;;;;;;8.63;1.90;;;;;;;3.26;82.83;98838.81;5031226;28;20711;-67
2021/12/10 03:44:22;;;;;;;7.93;2.00;;;;;;;3.11;83.56;98829.75;5031074;28;20215;-67
2021/12/10 03:46:49;;;;;;;8.77;2.27;;;;;;;3.13;83.15;98827.00;5031741;28;20214;-67
2021/12/10 03:49:18;;;;;;;7.13;2.17;;;;;;;2.92;83.86;98822.75;5035025;28;20224;-67
2021/12/10 03:51:46;;;;;;;5.00;1.90;;;;;;;3.06;82.86;98818.06;5032579;28;20205;-67
2021/12/10 03:54:16;;;;;;;14.43;2.60;;;;;;;3.13;83.02;98821.75;5036616;28;20244;-67
2021/12/10 03:56:48;;;;;;;7.73;2.70;;;;;;;3.10;82.79;98817.63;5036474;28;20340;-67
2021/12/10 03:59:17;;;;;;;11.90;2.97;;;;;;;3.17;82.49;98816.06;5037717;28;20217;-67
2021/12/10 04:01:49;;;;;;;7.60;2.33;;;;;;;3.18;82.36;98820.34;5031480;28;20238;-67
2021/12/10 04:04:22;;;;;;;7.93;1.77;;;;;;;3.09;82.17;98813.34;5032330;28;20221;-67
2021/12/10 04:06:51;;;;;;;6.63;2.07;;;;;;;3.07;82.19;98817.09;5033415;28;20239;-67
2021/12/10 04:09:19;;;;;;;7.10;1.70;;;;;;;3.11;82.56;98814.03;5038514;28;20210;-67
2021/12/10 04:11:49;;;;;;;4.77;1.80;;;;;;;3.19;81.44;98810.69;5030508;28;20238;-67
2021/12/10 04:14:17;;;;;;;9.03;2.30;;;;;;;3.15;81.26;98811.97;5039963;28;20207;-67
2021/12/10 04:16:46;;;;;;;7.57;1.90;;;;;;;3.03;82.04;98811.28;5027096;28;20217;-67
2021/12/10 04:19:14;;;;;;;11.40;1.90;;;;;;;3.18;81.09;98796.78;5029708;28;20317;-67
2021/12/10 04:21:43;;;;;;;8.60;2.00;;;;;;;3.06;81.34;98800.56;5032386;28;20231;-67
2021/12/10 04:24:15;;;;;;;7.03;2.43;;;;;;;3.04;81.72;98797.25;5029904;28;20220;-67
2021/12/10 04:26:43;;;;;;;7.33;1.67;;;;;;;2.87;81.92;98787.50;5031471;28;20675;-67
2021/12/10 04:29:13;;;;;;;10.67;3.10;;;;;;;3.10;81.15;98785.38;5031415;28;20218;-67
2021/12/10 04:31:41;;;;;;;10.97;2.27;;;;;;;3.65;79.33;98787.09;5032520;28;20256;-67
2021/12/10 04:34:09;;;;;;;7.00;1.90;;;;;;;4.11;77.41;98780.94;5034601;28;20218;-67
2021/12/10 04:36:37;;;;;;;7.63;2.63;;;;;;;3.98;76.78;98777.81;5033665;28;20226;-67
2021/12/10 04:39:05;;;;;;;9.50;3.37;;;;;;;4.17;76.70;98769.00;5033623;28;20243;-67
2021/12/10 04:41:33;;;;;;;12.13;2.87;;;;;;;4.18;76.36;98761.97;5035157;28;20700;-67
2021/12/10 04:44:02;;;;;;;8.03;2.80;;;;;;;4.02;75.70;98762.63;5038862;28;20603;-67
2021/12/10 04:46:31;;;;;;;9.07;3.07;;;;;;;4.00;76.18;98754.06;5031773;28;20236;-67
2021/12/10 04:49:01;;;;;;;8.47;2.60;;;;;;;3.80;77.35;98750.72;5031131;28;20269;-67
2021/12/10 04:51:32;;;;;;;10.63;2.93;;;;;;;4.28;76.00;98747.81;5032366;28;20246;-67
2021/12/10 04:54:01;;;;;;;11.50;2.80;;;;;;;4.13;75.60;98738.81;5032838;28;20219;-67
2021/12/10 04:56:30;;;;;;;9.10;3.43;;;;;;;3.90;76.57;98740.19;5023672;28;20207;-67
2021/12/10 04:58:58;;;;;;;10.97;2.80;;;;;;;4.05;76.54;98730.84;5024199;28;20258;-67
2021/12/10 05:01:27;;;;;;;13.20;4.30;;;;;;;4.46;75.01;98719.75;5023586;28;20659;-67
2021/12/10 05:03:56;;;;;;;8.33;3.60;;;;;;;4.62;74.00;98715.59;5021849;28;20208;-67
2021/12/10 05:06:24;;;;;;;8.53;2.90;;;;;;;4.67;73.54;98711.53;5028045;28;20697;-67
2021/12/10 05:08:52;;;;;;;11.10;3.57;;;;;;;4.47;74.28;98712.72;5011417;28;20227;-67
2021/12/10 05:11:20;;;;;;;8.67;3.20;;;;;;;4.58;73.83;98712.44;5025126;28;20253;-67
2021/12/10 05:13:48;;;;;;;13.13;3.17;;;;;;;4.69;73.64;98703.50;5021867;28;20228;-67
2021/12/10 05:16:25;;;;;;;13.60;3.20;;;;;;;4.58;73.67;98706.38;5021974;28;20307;-67
2021/12/10 05:18:57;;;;;;;8.77;2.63;;;;;;;4.72;73.01;98704.03;5024051;28;20739;-67
2021/12/10 05:21:28;;;;;;;12.40;3.70;;;;;;;4.40;73.97;98709.84;5024254;28;20232;-67
2021/12/10 05:23:56;;;;;;;9.43;3.23;;;;;;;4.26;74.70;98704.31;5020586;28;20221;-67
2021/12/10 05:26:24;;;;;;;12.17;4.27;;;;;;;4.11;75.18;98694.38;5024061;28;20213;-67
2021/12/10 05:28:53;;;;;;;16.90;3.93;;;;;;;4.35;74.91;98696.38;5026594;28;20220;-67
2021/12/10 05:31:20;;;;;;;8.90;3.70;;;;;;;4.29;74.39;98701.41;5026472;28;20713;-67
2021/12/10 05:33:49;;;;;;;11.80;4.83;;;;;;;4.24;74.82;98690.53;5023297;28;20290;-67
2021/12/10 05:36:17;;;;;;;15.30;4.30;;;;;;;4.03;75.55;98686.44;5024834;28;20651;-67
2021/12/10 05:38:46;;;;;;;10.80;3.73;;;;;;;4.41;74.90;98682.63;5021855;28;20213;-67
2021/12/10 05:41:14;;;;;;;9.33;3.80;;;;;;;4.48;74.13;98669.75;5020141;28;20268;-67
2021/12/10 05:43:43;;;;;;;9.77;3.60;;;;;;;4.32;74.74;98659.94;5020472;28;20222;-67
2021/12/10 05:46:12;;;;;;;10.67;3.53;;;;;;;3.97;75.29;98654.72;5020733;28;20688;-67
2021/12/10 05:48:40;;;;;;;12.10;3.40;;;;;;;4.21;75.66;98651.50;5023135;28;20214;-67
2021/12/10 05:51:09;;;;;;;15.27;4.07;;;;;;;3.72;76.02;98636.13;5025888;28;20227;-67
2021/12/10 05:53:37;;;;;;;11.90;3.60;;;;;;;4.16;75.47;98623.91;5024352;28;20360;-67
2021/12/10 05:56:07;;;;;;;12.57;3.53;;;;;;;3.89;75.72;98626.63;5041596;28;20235;-67
2021/12/10 05:58:35;;;;;;;10.83;3.23;;;;;;;3.88;76.69;98613.66;5042639;28;20385;-67
2021/12/10 06:01:06;;;;;;;9.00;3.10;;;;;;;4.34;74.68;98618.63;5021852;28;20318;-67
2021/12/10 06:03:36;;;;;;;12.33;2.80;;;;;;;4.52;73.55;98608.91;5039369;28;20211;-67
2021/12/10 06:06:04;;;;;;;7.40;2.77;;;;;;;4.56;73.23;98612.06;5034612;28;20305;-67
2021/12/10 06:08:33;;;;;;;10.23;2.90;;;;;;;4.37;73.28;98609.63;5037687;28;20215;-67
2021/12/10 06:11:03;;;;;;;7.73;2.90;;;;;;;4.44;73.67;98603.59;5047076;28;20219;-67
2021/12/10 06:13:32;;;;;;;10.07;3.00;;;;;;;4.66;72.98;98602.25;5044358;28;20306;-67
2021/12/10 06:16:00;;;;;;;6.80;2.40;;;;;;;4.71;72.12;98602.63;5046476;28;20593;-68
2021/12/10 06:18:28;;;;;;;13.87;3.50;;;;;;;4.30;73.38;98604.19;5041618;28;20296;-68
2021/12/10 06:20:56;;;;;;;16.90;5.77;;;;;;;4.34;73.81;98594.19;5039672;28;22039;-68
2021/12/10 06:23:25;;;;;;;17.70;4.73;;;;;;;4.44;72.98;98595.72;5031577;28;20683;-67
2021/12/10 06:25:52;;;;;;;12.33;3.57;;;;;;;4.43;72.91;98594.09;5038827;28;20214;-68
2021/12/10 06:28:20;;;;;;;18.80;6.47;;;;;;;4.62;72.72;98587.81;5036827;28;20204;-67
2021/12/10 06:30:52;;;;;;;17.03;5.80;;;;;;;4.64;72.31;98585.84;5034641;28;20253;-68
2021/12/10 06:33:23;;;;;;;10.10;3.53;;;;;;;4.48;72.83;98585.75;5040318;28;20298;-68
2021/12/10 06:35:53;;;;;;;18.23;4.70;;;;;;;4.49;72.45;98577.72;5039308;28;20234;-68
2021/12/10 06:38:23;;;;;;;8.97;3.37;;;;;;;4.22;73.21;98569.19;5039840;28;20326;-68
2021/12/10 06:40:52;;;;;;;12.03;3.03;;;;;;;3.65;74.95;98566.13;5044198;28;20219;-68
2021/12/10 06:43:22;;;;;;;12.03;3.13;;;;;;;4.02;73.95;98564.13;5042292;28;20313;-68
2021/12/10 06:45:54;;;;;;;8.60;2.90;;;;;;;3.62;75.22;98546.25;5036802;28;20305;-67
2021/12/10 06:48:25;;;;;;;10.80;2.50;;;;;;;4.09;73.83;98554.69;5041070;28;20288;-68
2021/12/10 06:50:56;;;;;;;9.30;3.17;;;;;;;4.06;73.63;98544.47;5043599;28;20871;-68
2021/12/10 06:53:26;;;;;;;13.07;3.40;;;;;;;3.73;74.13;98543.41;5038807;28;20219;-68
2021/12/10 06:55:55;;;;;;;8.93;3.23;;;;;;;3.59;74.92;98538.72;5039595;28;20670;-68
2021/12/10 06:58:23;;;;;;;6.47;3.50;;;;;;;3.79;74.12;98527.06;5041169;28;20294;-68
2021/12/10 07:00:55;;;;;;;9.30;3.10;;;;;;;3.78;74.54;98527.25;5038554;28;20220;-68
2021/12/10 07:03:26;;;;;;;16.30;3.10;;;;;;;3.90;73.93;98527.81;5041011;28;20221;-68
2021/12/10 07:05:57;;;;;;;10.03;2.90;;;;;;;3.16;75.45;98529.00;5039522;28;21055;-68
2021/12/10 07:08:27;;;;;;;12.43;3.27;;;;;;;3.31;75.86;98510.94;5041620;28;20463;-68
2021/12/10 07:10:56;;;;;;;7.53;2.93;;;;;;;3.86;73.96;98522.06;5034719;28;20336;-68
2021/12/10 07:13:25;;;;;;;12.77;2.90;;;;;;;3.53;74.10;98510.47;5027015;28;20212;-68
2021/12/10 07:15:55;;;;;;;9.07;2.53;;;;;;;3.11;75.23;98510.25;5024659;28;20272;-68
2021/12/10 07:18:23;;;;;;;12.57;3.10;;;;;;;3.46;74.85;98506.00;5030904;28;20218;-68
2021/12/10 07:20:53;;;;;;;8.97;3.10;;;;;;;3.55;74.68;98505.09;5042905;28;20252;-67
2021/12/10 07:23:22;;;;;;;6.37;2.67;;;;;;;3.77;74.03;98504.63;5039803;28;20320;-67
2021/12/10 07:25:50;;;;;;;7.57;2.83;;;;;;;3.95;72.95;98509.84;5036947;28;20250;-67
2021/12/10 07:28:18;;;;;;;13.68;3.50;;;;;;;4.17;72.44;98509.31;5036356;28;20456;-65
2021/12/10 07:30:47;;;;;;;8.40;3.10;;;;;;;4.37;70.94;98502.03;5037675;28;20302;-64
2021/12/10 07:33:17;;;;;;;12.87;3.37;;;;;;;4.35;71.38;98498.75;5041093;28;20219;-64
2021/12/10 07:35:47;;;;;;;10.53;3.00;;;;;;;3.82;72.13;98499.75;5041194;28;20234;-64
2021/12/10 07:38:16;;;;;;;11.10;3.27;;;;;;;4.21;72.01;98489.66;5042154;28;20211;-66
2021/12/10 07:40:44;;;;;;;9.90;3.20;;;;;;;4.57;70.67;98489.50;5044469;28;20629;-64
2021/12/10 07:43:17;;;;;;;10.83;3.50;;;;;;;4.52;70.70;98490.78;5043258;28;20607;-64
2021/12/10 07:45:48;;;;;;;7.43;3.07;;;;;;;4.76;70.09;98484.81;5046006;28;20330;-64
2021/12/10 07:48:19;;;;;;;13.33;3.33;;;;;;;4.83;69.86;98479.75;5046632;28;20747;-64
2021/12/10 07:50:53;;;;;;;5.97;2.77;;;;;;;4.64;69.79;98488.72;5047887;28;20301;-64
2021/12/10 07:53:21;;;;;;;8.20;2.83;;;;;;;4.25;70.40;98482.28;5043252;28;20242;-64
2021/12/10 07:55:50;;;;;;;7.63;3.03;;;;;;;4.64;69.85;98488.72;5027303;28;20246;-64
2021/12/10 07:58:19;;;;;;;11.50;2.90;;;;;;;4.67;69.66;98485.75;5016809;28;20687;-65
2021/12/10 08:00:48;;;;;;;8.10;2.83;;;;;;;4.91;68.87;98472.72;5025502;28;20868;-64
2021/12/10 08:03:19;;;;;;;6.77;2.80;;;;;;;4.94;68.33;98476.81;5028476;28;20785;-64
2021/12/10 08:05:49;;;;;;;12.17;3.80;;;;;;;4.71;69.15;98473.97;5024226;28;20219;-64
2021/12/10 08:08:17;;;;;;;8.57;2.83;;;;;;;4.65;69.68;98482.50;5027635;28;20276;-64
2021/12/10 08:10:47;;;;;;;8.13;3.10;;;;;;;4.97;68.82;98471.25;5024479;28;20217;-65
2021/12/10 08:13:16;;;;;;;10.90;2.80;;;;;;;4.83;68.59;98482.38;5034246;28;20235;-64
2021/12/10 08:15:44;;;;;;;9.00;3.37;;;;;;;4.95;69.60;98482.88;5026633;28;20297;-65
2021/12/10 08:18:12;;;;;;;15.20;3.60;;;;;;;4.99;68.43;98485.03;5025961;28;20213;-63
2021/12/10 08:20:42;;;;;;;12.83;3.57;;;;;;;4.62;69.35;98492.47;5029069;28;20240;-63
2021/12/10 08:23:10;;;;;;;11.70;4.20;;;;;;;4.68;69.41;98497.91;5031101;28;20261;-64
2021/12/10 08:25:39;;;;;;;9.00;3.57;;;;;;;4.91;68.35;98496.34;5028809;28;20290;-65
2021/12/10 08:28:07;;;;;;;10.43;3.37;;;;;;;4.92;68.26;98499.81;5030141;28;20347;-65
2021/12/10 08:30:37;;;;;;;8.30;3.40;;;;;;;5.00;68.05;98486.69;5033531;28;20223;-65
2021/12/10 08:33:11;;;;;;;13.43;3.27;;;;;;;5.09;66.79;98495.41;5026533;28;20230;-65
2021/12/10 08:35:41;;;;;;;8.37;2.90;;;;;;;5.05;67.03;98486.19;5034387;28;20212;-65
2021/12/10 08:38:11;;;;;;;9.00;3.07;;;;;;;5.20;67.20;98489.81;5033466;28;20748;-65
2021/12/10 08:40:47;;;;;;;6.77;2.70;;;;;;;4.96;67.49;98489.78;5029519;28;20315;-63
2021/12/10 08:43:15;;;;;;;8.90;2.90;;;;;;;5.22;67.26;98482.63;5030091;28;20711;-64
2021/12/10 08:45:44;;;;;;;5.27;2.47;;;;;;;5.32;66.61;98472.78;5032633;28;20209;-64
2021/12/10 08:48:12;;;;;;;11.77;3.13;;;;;;;5.26;66.74;98468.19;5034172;28;20212;-65
2021/12/10 08:50:42;;;;;;;9.73;2.83;;;;;;;4.85;68.28;98467.28;5032439;28;20225;-65
2021/12/10 08:53:13;;;;;;;7.40;2.70;;;;;;;5.09;66.90;98461.25;5022951;28;20217;-65
2021/12/10 08:55:44;;;;;;;7.80;2.80;;;;;;;5.36;66.45;98465.41;5022588;28;20328;-64
2021/12/10 08:58:13;;;;;;;9.57;3.23;;;;;;;5.17;67.06;98463.91;5020854;28;20737;-64
2021/12/10 09:00:44;;;;;;;11.33;3.10;;;;;;;5.15;67.22;98464.06;5017587;28;20225;-64
2021/12/10 09:03:13;;;;;;;12.47;3.70;;;;;;;5.36;66.25;98460.97;5022504;28;20237;-64
2021/12/10 09:05:42;;;;;;;8.37;3.30;;;;;;;5.38;66.80;98456.34;5021240;28;20651;-64
2021/12/10 09:08:12;;;;;;;9.97;2.73;;;;;;;5.48;66.13;98459.63;5020542;28;20204;-64
2021/12/10 09:10:43;;;;;;;6.30;3.13;;;;;;;5.18;66.94;98444.53;5024267;28;20562;-63
2021/12/10 09:13:15;;;;;;;9.23;3.40;;;;;;;5.42;66.94;98439.28;5023833;28;20297;-63
2021/12/10 09:15:46;;;;;;;10.20;3.13;;;;;;;5.16;66.96;98438.59;5023292;28;20303;-63
2021/12/10 09:18:14;;;;;;;15.07;4.77;;;;;;;4.89;67.67;98435.28;5023162;28;20208;-65
2021/12/10 09:20:46;;;;;;;7.30;3.17;;;;;;;4.83;67.98;98428.06;5010072;28;20238;-64
2021/12/10 09:23:19;;;;;;;9.93;3.50;;;;;;;4.58;68.08;98428.97;5020035;28;20320;-64
2021/12/10 09:25:53;;;;;;;24.77;3.90;;;;;;;4.70;67.88;98419.81;5018219;28;20216;-63
2021/12/10 09:28:23;;;;;;;10.10;3.87;;;;;;;4.51;68.02;98417.47;5023344;28;20614;-65
2021/12/10 09:30:53;;;;;;;10.20;3.33;;;;;;;4.35;68.14;98404.28;5022403;28;20215;-65
2021/12/10 09:33:22;;;;;;;10.30;3.50;;;;;;;4.92;67.43;98390.31;5020193;28;20299;-66
2021/12/10 09:35:50;;;;;;;12.73;3.50;;;;;;;4.53;67.61;98397.97;5024091;28;20308;-63
2021/12/10 09:38:21;;;;;;;6.93;3.43;;;;;;;4.13;67.77;98387.34;5026739;28;20244;-65
2021/12/10 09:40:53;;;;;;;6.37;2.70;;;;;;;4.22;67.89;98401.31;5020901;28;20782;-64
2021/12/10 09:43:22;;;;;;;8.73;3.37;;;;;;;4.01;68.09;98405.16;5022190;28;20709;-64
2021/12/10 09:45:53;;;;;;;9.47;3.40;;;;;;;3.92;68.50;98400.00;5024502;28;20659;-65
2021/12/10 09:48:24;;;;;;;11.53;3.17;;;;;;;3.92;68.13;98385.09;5020343;28;20208;-64
2021/12/10 09:50:55;;;;;;;7.33;3.20;;;;;;;4.21;68.11;98384.75;5020352;28;20695;-65
2021/12/10 09:53:26;;;;;;;9.33;3.07;;;;;;;4.34;67.24;98385.09;5017346;28;20220;-65
2021/12/10 09:55:55;;;;;;;6.30;2.63;;;;;;;4.27;67.51;98391.16;5021360;28;20287;-64
2021/12/10 09:58:25;;;;;;;9.43;3.00;;;;;;;4.50;66.31;98384.31;5021796;28;20560;-64
2021/12/10 10:00:57;;;;;;;8.00;3.23;;;;;;;4.30;66.56;98381.16;5025956;28;20665;-63
2021/12/10 10:03:28;;;;;;;7.17;2.83;;;;;;;4.27;67.80;98380.66;5027437;28;20266;-64
2021/12/10 10:05:56;;;;;;;6.97;3.23;;;;;;;4.34;67.63;98381.66;5028161;28;20216;-64
2021/12/10 10:08:28;;;;;;;10.37;3.37;;;;;;;3.98;68.77;98379.22;5027394;28;20259;-64
2021/12/10 10:11:04;;;;;;;6.57;2.80;;;;;;;3.88;68.56;98382.94;5029748;28;20295;-61
2021/12/10 10:13:36;;;;;;;6.60;2.87;;;;;;;3.87;68.91;98366.38;5028785;28;20286;-62
2021/12/10 10:16:08;;;;;;;9.83;3.23;;;;;;;3.79;68.34;98367.16;5023852;28;20212;-63
2021/12/10 10:18:39;;;;;;;10.00;3.50;;;;;;;3.86;68.98;98367.38;5025088;28;20223;-60
2021/12/10 10:21:10;;;;;;;11.13;3.20;;;;;;;3.89;68.89;98367.06;5027610;28;20679;-61
2021/12/10 10:23:41;;;;;;;10.20;3.40;;;;;;;3.79;69.28;98364.53;5024822;28;20735;-62
2021/12/10 10:26:15;;;;;;;14.20;3.50;;;;;;;3.91;69.46;98365.09;5029849;28;20216;-63
2021/12/10 10:28:44;;;;;;;12.30;3.90;;;;;;;3.93;69.38;98364.94;5022330;28;20223;-63
2021/12/10 10:31:17;;;;;;;14.97;3.53;;;;;;;4.07;69.28;98352.06;5023908;28;20227;-63
2021/12/10 10:33:47;;;;;;;7.13;3.43;;;;;;;4.10;69.37;98350.94;5026933;28;20210;-63
2021/12/10 10:36:19;;;;;;;8.63;3.43;;;;;;;3.98;69.77;98345.13;5023417;28;21021;-64
2021/12/10 10:38:53;;;;;;;10.63;3.33;;;;;;;4.15;69.70;98346.84;5029588;28;20599;-64
2021/12/10 10:41:23;;;;;;;9.03;3.67;;;;;;;4.20;69.05;98340.31;5028494;28;20307;-65
2021/12/10 10:43:51;;;;;;;11.50;3.80;;;;;;;4.20;68.06;98329.81;5025437;28;20251;-66
2021/12/10 10:46:19;;;;;;;8.53;3.37;;;;;;;4.26;68.52;98332.63;5029329;28;20692;-62
2021/12/10 10:48:48;;;;;;;8.80;2.93;;;;;;;4.22;67.70;98333.94;5027096;28;20620;-64
2021/12/10 10:51:19;;;;;;;7.93;3.20;;;;;;;4.12;68.05;98336.69;5046166;28;20234;-66
2021/12/10 10:53:50;;;;;;;7.43;2.80;;;;;;;4.05;67.96;98333.03;5027367;28;20683;-66
2021/12/10 10:56:20;;;;;;;9.77;3.00;;;;;;;4.03;68.05;98329.75;5032320;28;20227;-65
2021/12/10 10:58:56;;;;;;;9.47;3.13;;;;;;;4.13;67.77;98329.63;5026283;28;20270;-67
2021/12/10 11:01:31;;;;;;;8.77;3.00;;;;;;;4.02;68.46;98329.91;5026789;28;20322;-61
2021/12/10 11:04:25;;;;;;;10.10;2.80;;;;;;;4.06;68.09;98337.28;5025359;28;20227;-65
2021/12/10 11:06:56;;;;;;;8.83;3.10;;;;;;;4.05;67.92;98333.03;5022317;28;20226;-65
2021/12/10 11:09:29;;;;;;;8.50;3.50;;;;;;;4.14;68.18;98342.56;5026931;28;20226;-64
2021/12/10 11:11:59;;;;;;;7.10;3.10;;;;;;;4.08;68.58;98351.06;5025195;28;20219;-64
2021/12/10 11:14:32;;;;;;;7.00;2.53;;;;;;;4.05;69.09;98340.06;5024450;28;20266;-63
2021/12/10 11:17:05;;;;;;;6.43;2.67;;;;;;;4.01;70.09;98346.63;5027050;28;20302;-63
2021/12/10 11:19:53;;;;;;;6.50;2.67;;;;;;;3.98;70.93;98347.75;5017154;28;20219;-63
2021/12/10 11:22:23;;;;;;;6.77;2.60;;;;;;;3.86;72.77;98354.28;5023567;28;20222;-63
2021/12/10 11:24:56;;;;;;;7.70;2.63;;;;;;;3.82;74.29;98352.09;5026638;28;20266;-64
2021/12/10 11:27:28;;;;;;;8.03;2.90;;;;;;;3.81;75.07;98353.91;5020396;28;20618;-63
2021/12/10 11:30:04;;;;;;;8.20;2.90;;;;;;;3.53;77.32;98352.44;5028622;28;21865;-64
2021/12/10 11:32:37;;;;;;;10.47;3.13;;;;;;;3.55;78.56;98353.94;5025329;28;20307;-63
2021/12/10 11:35:11;;;;;;;7.30;3.17;;;;;;;3.64;79.00;98352.19;5024334;28;20208;-62
2021/12/10 11:37:50;;;;;;;8.83;3.23;;;;;;;3.56;79.23;98349.53;5027031;28;20295;-60
2021/12/10 11:40:39;;;;;;;9.07;3.50;;;;;;;3.61;80.29;98344.63;5024309;28;20218;-62
2021/12/10 11:43:32;;;;;;;8.33;3.30;;;;;;;3.81;79.78;98346.03;5014079;28;20263;-62
2021/12/10 11:46:29;;;;;;;9.60;3.27;;;;;;;3.54;81.05;98330.50;5019330;28;22084;-62
2021/12/10 11:49:02;;;;;;;13.57;3.43;;;;;;;3.76;81.01;98327.34;5023332;28;20216;-63
2021/12/10 11:51:33;;;;;;;11.00;3.60;;;;;;;3.51;81.10;98323.78;5022199;28;20210;-64
2021/12/10 11:54:05;;;;;;;12.10;3.23;;;;;;;3.46;82.25;98323.41;5024164;28;20220;-64
2021/12/10 11:56:37;;;;;;;9.93;3.43;;;;;;;3.55;82.87;98321.66;5047197;28;20603;-64
2021/12/10 11:59:10;;;;;;;7.90;3.30;;;;;;;3.90;80.99;98318.88;5050430;28;20297;-63
2021/12/10 12:01:49;;;;;;;9.63;3.03;;;;;;;3.85;81.18;98317.72;5048202;28;20203;-64